Terminal Aerodrome Forecast
Issued by NWS

Home | Current Version | Previous Version | Text Only | Print | Product List | Glossary On
Versions: 1 2 3 4 5 6 7 8 9 10 11 12
000
FTAK31 PANC 222340
TAFAHO
TAF
PAHO 222340Z 2300/2324 25011KT P6SM SCT035 BKN050
      TEMPO 2300/2304 5SM SHRA BR BKN035
     FM230600 VRB04KT P6SM SCT050 BKN090
     FM232100 20008KT P6SM VCSH FEW050 BKN070=

USA.gov is the U.S. government's official web portal to all federal, state and local government web resources and services.